Time;durP1;ratioP1;P1;durP2;ratioP2;P2;SDS_P1;SDS_P2;PMS_P1;PMS_P2;Temp;Humidity;BMP_temperature;BMP_pressure;BME280_temperature;BME280_humidity;BME280_pressure;Samples;Min_cycle;Max_cycle;Signal;HPM_P1;HPM_P2
2024/04/12 00:01:44;;;;;;;15.23;12.20;;;14.20;99.90;;;;;;5416566;26;20519;-62
2024/04/12 00:04:15;;;;;;;14.00;11.10;;;14.20;99.90;;;;;;5417508;26;20457;-60
2024/04/12 00:06:44;;;;;;;16.20;12.37;;;14.30;99.90;;;;;;5417007;26;21047;-61
2024/04/12 00:09:17;;;;;;;18.70;12.90;;;14.20;99.90;;;;;;5417110;26;20857;-62
2024/04/12 00:11:46;;;;;;;18.77;12.53;;;14.20;99.90;;;;;;5416519;26;20449;-60
2024/04/12 00:14:13;;;;;;;17.73;12.67;;;14.20;99.90;;;;;;5416613;26;20557;-60
2024/04/12 00:16:50;;;;;;;17.13;13.47;;;14.20;99.90;;;;;;5416025;26;21038;-61
2024/04/12 00:19:18;;;;;;;22.00;14.20;;;14.20;99.90;;;;;;5416082;26;20989;-61
2024/04/12 00:21:47;;;;;;;15.87;11.60;;;14.20;99.90;;;;;;5416211;26;20464;-61
2024/04/12 00:24:15;;;;;;;16.70;13.27;;;14.20;99.90;;;;;;5416347;26;20499;-61
2024/04/12 00:26:46;;;;;;;17.10;12.00;;;14.20;99.90;;;;;;5416282;26;20456;-60
2024/04/12 00:29:25;;;;;;;16.77;12.43;;;14.20;99.90;;;;;;5417756;26;20528;-61
2024/04/12 00:32:03;;;;;;;19.07;12.37;;;14.20;99.90;;;;;;5419453;26;20449;-61
2024/04/12 00:34:36;;;;;;;19.23;13.50;;;14.10;99.90;;;;;;5419565;26;21001;-60
2024/04/12 00:37:09;;;;;;;16.93;13.30;;;14.10;99.90;;;;;;5419596;26;20533;-61
2024/04/12 00:39:35;;;;;;;17.53;12.83;;;14.10;99.90;;;;;;5420338;26;20527;-61
2024/04/12 00:42:07;;;;;;;19.17;12.63;;;14.10;99.90;;;;;;5421876;26;20582;-62
2024/04/12 00:44:33;;;;;;;17.20;13.50;;;14.10;99.90;;;;;;5420324;26;20452;-60
2024/04/12 00:47:07;;;;;;;15.20;12.80;;;14.10;99.90;;;;;;5419763;26;20453;-60
2024/04/12 00:49:36;;;;;;;18.43;13.80;;;14.10;99.90;;;;;;5419741;26;20496;-60
2024/04/12 00:52:06;;;;;;;16.00;12.70;;;14.10;99.90;;;;;;5419352;26;20468;-60
2024/04/12 00:54:33;;;;;;;16.47;12.30;;;14.10;99.90;;;;;;5419229;26;20567;-60
2024/04/12 00:57:02;;;;;;;16.73;13.63;;;14.10;99.90;;;;;;5419292;26;20586;-61
2024/04/12 00:59:31;;;;;;;18.50;13.90;;;14.00;99.90;;;;;;5419378;26;21001;-59
2024/04/12 01:01:59;;;;;;;16.60;12.90;;;14.10;99.90;;;;;;5419154;26;20532;-60
2024/04/12 01:04:29;;;;;;;16.03;12.17;;;14.00;99.90;;;;;;5419880;26;20460;-59
2024/04/12 01:06:58;;;;;;;15.87;11.50;;;14.00;99.90;;;;;;5419398;26;20995;-61
2024/04/12 01:09:24;;;;;;;13.17;11.47;;;14.00;99.90;;;;;;5419396;26;20591;-60
2024/04/12 01:11:52;;;;;;;15.00;11.03;;;14.00;99.90;;;;;;5419316;26;21004;-62
2024/04/12 01:14:18;;;;;;;16.50;12.97;;;14.10;99.90;;;;;;5419515;26;20263;-61
2024/04/12 01:16:46;;;;;;;14.50;11.33;;;14.10;99.90;;;;;;5419586;26;21079;-61
2024/04/12 01:19:12;;;;;;;15.80;12.60;;;14.10;99.90;;;;;;5419465;26;20223;-61
2024/04/12 01:21:44;;;;;;;19.20;13.50;;;14.10;99.90;;;;;;5419257;26;20456;-61
2024/04/12 01:24:10;;;;;;;17.53;12.83;;;14.10;99.90;;;;;;5419653;26;20246;-61
2024/04/12 01:26:41;;;;;;;16.30;12.03;;;14.10;99.90;;;;;;5419028;26;20449;-60
2024/04/12 01:29:07;;;;;;;17.67;11.83;;;14.10;99.90;;;;;;5419175;26;20451;-61
2024/04/12 01:31:38;;;;;;;18.20;11.80;;;14.10;99.90;;;;;;5419359;26;21064;-60
2024/04/12 01:34:12;;;;;;;15.10;13.17;;;14.10;99.90;;;;;;5419531;26;20497;-61
2024/04/12 01:36:43;;;;;;;18.80;12.23;;;14.10;99.90;;;;;;5419760;26;20548;-61
2024/04/12 01:39:11;;;;;;;15.80;13.07;;;14.10;99.90;;;;;;5419447;26;20782;-61
2024/04/12 01:41:44;;;;;;;16.23;13.47;;;14.10;99.90;;;;;;5418323;26;20452;-60
2024/04/12 01:44:12;;;;;;;18.30;12.80;;;14.10;99.90;;;;;;5418858;26;20558;-59
2024/04/12 01:46:41;;;;;;;19.63;13.80;;;14.10;99.90;;;;;;5418790;26;20530;-61
2024/04/12 01:49:10;;;;;;;16.77;12.57;;;14.10;99.90;;;;;;5418577;26;20504;-60
2024/04/12 01:51:40;;;;;;;21.70;14.87;;;14.10;99.90;;;;;;5418498;26;20526;-60
2024/04/12 01:54:13;;;;;;;21.43;13.07;;;14.10;99.90;;;;;;5418357;26;20505;-60
2024/04/12 01:56:47;;;;;;;16.17;13.30;;;14.10;99.90;;;;;;5418717;26;21090;-61
2024/04/12 01:59:15;;;;;;;19.47;13.00;;;14.00;99.90;;;;;;5421014;26;20501;-62
2024/04/12 02:01:45;;;;;;;17.73;13.20;;;14.00;99.90;;;;;;5420573;26;20862;-60
2024/04/12 02:04:15;;;;;;;15.67;13.20;;;14.00;99.90;;;;;;5462954;21;20617;-61
2024/04/12 02:06:43;;;;;;;15.87;12.60;;;14.00;99.90;;;;;;5454614;26;20451;-62
2024/04/12 02:09:14;;;;;;;16.40;14.00;;;14.00;99.90;;;;;;5454548;26;20455;-60
2024/04/12 02:11:45;;;;;;;18.57;13.03;;;14.00;99.90;;;;;;5454387;26;20569;-61
2024/04/12 02:14:12;;;;;;;18.53;13.63;;;14.00;99.90;;;;;;5454473;26;20499;-61
2024/04/12 02:16:41;;;;;;;19.90;13.80;;;14.00;99.90;;;;;;5454493;26;20542;-62
2024/04/12 02:19:10;;;;;;;17.03;13.77;;;14.00;99.90;;;;;;5454278;26;20860;-61
2024/04/12 02:21:38;;;;;;;17.70;13.53;;;14.00;99.90;;;;;;5454370;26;20561;-61
2024/04/12 02:24:05;;;;;;;15.60;13.40;;;14.00;99.90;;;;;;5454068;26;20508;-61
2024/04/12 02:26:35;;;;;;;17.27;13.63;;;14.00;99.90;;;;;;5454226;26;20500;-62
2024/04/12 02:29:04;;;;;;;19.30;15.00;;;14.00;99.90;;;;;;5454220;26;21067;-62
2024/04/12 02:31:34;;;;;;;15.43;13.70;;;14.00;99.90;;;;;;5453967;26;20448;-61
2024/04/12 02:34:01;;;;;;;17.43;13.77;;;14.00;99.90;;;;;;5453795;26;20606;-61
2024/04/12 02:36:31;;;;;;;18.27;13.07;;;14.00;99.90;;;;;;5453741;26;20756;-61
2024/04/12 02:38:58;;;;;;;16.23;13.10;;;14.10;99.90;;;;;;5454202;26;20519;-61
2024/04/12 02:41:37;;;;;;;15.80;12.27;;;14.10;99.90;;;;;;5453873;26;20511;-60
2024/04/12 02:44:06;;;;;;;15.50;12.10;;;14.10;99.90;;;;;;5453884;26;20460;-61
2024/04/12 02:46:35;;;;;;;14.17;11.50;;;14.10;99.90;;;;;;5453990;26;21117;-61
2024/04/12 02:49:05;;;;;;;16.47;12.03;;;14.10;99.90;;;;;;5453742;26;20448;-62
2024/04/12 02:51:33;;;;;;;16.13;12.93;;;14.10;99.90;;;;;;5453017;26;20455;-61
2024/04/12 02:53:59;;;;;;;16.80;12.70;;;14.10;99.90;;;;;;5453087;26;20523;-61
2024/04/12 02:56:27;;;;;;;16.67;12.20;;;14.10;99.90;;;;;;5453869;26;20902;-61
2024/04/12 02:58:55;;;;;;;14.60;11.90;;;14.10;99.90;;;;;;5453814;26;20451;-61
2024/04/12 03:01:27;;;;;;;16.00;11.80;;;14.10;99.90;;;;;;5453369;26;21013;-61
2024/04/12 03:03:55;;;;;;;16.60;11.70;;;14.10;99.90;;;;;;5453611;26;20234;-62
2024/04/12 03:06:25;;;;;;;15.57;11.20;;;14.10;99.90;;;;;;5453919;26;21065;-61
2024/04/12 03:08:51;;;;;;;15.70;11.20;;;14.10;99.90;;;;;;5454656;26;20455;-61
2024/04/12 03:11:25;;;;;;;14.40;11.47;;;14.10;99.90;;;;;;5454821;26;20495;-61
2024/04/12 03:13:52;;;;;;;15.37;11.93;;;14.10;99.90;;;;;;5453843;26;20534;-61
2024/04/12 03:16:21;;;;;;;15.43;12.23;;;14.10;99.90;;;;;;5453623;26;20448;-63
2024/04/12 03:18:51;;;;;;;12.67;11.33;;;14.10;99.90;;;;;;5453625;26;20488;-62
2024/04/12 03:21:21;;;;;;;15.40;11.57;;;14.10;99.90;;;;;;5453765;26;20519;-61
2024/04/12 03:23:48;;;;;;;14.47;11.97;;;14.10;99.90;;;;;;5453398;26;20455;-62
2024/04/12 03:26:18;;;;;;;15.17;12.10;;;14.10;99.90;;;;;;5453363;26;20566;-62
2024/04/12 03:28:45;;;;;;;17.83;12.60;;;14.10;99.90;;;;;;5453313;26;20451;-62
2024/04/12 03:31:14;;;;;;;18.03;12.60;;;14.10;99.90;;;;;;5453131;26;20829;-61
2024/04/12 03:33:42;;;;;;;18.27;12.03;;;14.10;99.90;;;;;;5453699;26;20456;-61
2024/04/12 03:36:53;;;;;;;15.13;11.77;;;14.10;99.90;;;;;;5457813;26;20463;-63
2024/04/12 03:39:24;;;;;;;13.37;11.17;;;14.10;99.90;;;;;;5453508;26;20787;-62
2024/04/12 03:41:56;;;;;;;15.43;12.33;;;14.10;99.90;;;;;;5453527;26;20498;-62
2024/04/12 03:44:25;;;;;;;15.60;12.47;;;14.10;99.90;;;;;;5452942;26;20463;-61
2024/04/12 03:46:57;;;;;;;14.43;11.47;;;14.10;99.90;;;;;;5452665;26;20447;-61
2024/04/12 03:49:23;;;;;;;18.50;12.53;;;14.10;99.90;;;;;;5453094;26;20619;-61
2024/04/12 03:51:56;;;;;;;18.00;11.77;;;14.10;99.90;;;;;;5453017;26;20451;-62
2024/04/12 03:54:24;;;;;;;14.70;11.60;;;14.20;99.90;;;;;;5452892;26;20226;-61
2024/04/12 03:56:56;;;;;;;19.90;13.80;;;14.10;99.90;;;;;;5452897;26;20456;-61
2024/04/12 03:59:24;;;;;;;14.10;10.97;;;14.10;99.90;;;;;;5452771;26;20503;-61
2024/04/12 04:01:54;;;;;;;14.23;11.40;;;14.10;99.90;;;;;;5452805;26;21022;-61
2024/04/12 04:04:25;;;;;;;14.37;12.07;;;14.10;99.90;;;;;;5452318;26;20848;-62
2024/04/12 04:06:54;;;;;;;17.70;12.40;;;14.10;99.90;;;;;;5454677;26;20995;-61
2024/04/12 04:09:23;;;;;;;15.17;12.27;;;14.20;99.90;;;;;;5455616;26;20565;-61
2024/04/12 04:13:34;;;;;;;15.90;12.00;;;14.10;99.90;;;;;;5514979;25;20678;-62
2024/04/12 04:16:00;;;;;;;16.57;11.20;;;14.10;99.90;;;;;;5477311;26;20450;-62
2024/04/12 04:18:32;;;;;;;13.47;11.50;;;14.10;99.90;;;;;;5477572;26;21043;-62
2024/04/12 04:21:06;;;;;;;17.40;11.20;;;14.10;99.90;;;;;;5478878;26;20518;-62
2024/04/12 04:23:38;;;;;;;18.30;12.57;;;14.10;99.90;;;;;;5476303;26;20466;-62
2024/04/12 04:26:08;;;;;;;18.67;11.90;;;14.10;99.90;;;;;;5473076;26;20446;-61
2024/04/12 04:28:39;;;;;;;15.73;12.10;;;14.10;99.90;;;;;;5472618;26;20510;-62
2024/04/12 04:31:06;;;;;;;16.03;12.50;;;14.10;99.90;;;;;;5472918;26;20567;-61
2024/04/12 04:33:34;;;;;;;16.67;12.53;;;14.10;99.90;;;;;;5472672;26;20470;-62
2024/04/12 04:36:08;;;;;;;15.50;11.70;;;14.10;99.90;;;;;;5472479;26;20573;-62
2024/04/12 04:38:38;;;;;;;16.23;12.13;;;14.10;99.90;;;;;;5472130;26;20458;-62
2024/04/12 04:41:06;;;;;;;12.47;10.53;;;14.10;99.90;;;;;;5471934;26;20587;-62
2024/04/12 04:43:35;;;;;;;15.70;10.80;;;14.20;99.90;;;;;;5472126;26;20522;-62
2024/04/12 04:46:25;;;;;;;20.70;12.00;;;14.20;99.90;;;;;;5472897;26;20442;-62
2024/04/12 04:48:54;;;;;;;17.53;11.90;;;14.20;99.90;;;;;;5473187;26;20514;-62
2024/04/12 04:51:19;;;;;;;14.33;11.73;;;14.20;99.90;;;;;;5473212;26;20495;-62
2024/04/12 04:53:52;;;;;;;19.00;11.60;;;14.20;99.90;;;;;;5472477;26;20470;-61
2024/04/12 04:56:24;;;;;;;14.37;11.00;;;14.20;99.90;;;;;;5472516;26;20585;-62
2024/04/12 04:58:53;;;;;;;17.43;12.00;;;14.30;99.90;;;;;;5472095;26;20442;-62
2024/04/12 05:01:24;;;;;;;17.00;12.50;;;14.30;99.90;;;;;;5472531;26;21064;-62
2024/04/12 05:03:53;;;;;;;13.93;11.70;;;14.30;99.90;;;;;;5474160;26;20560;-61
2024/04/12 05:06:24;;;;;;;19.30;11.87;;;14.30;99.90;;;;;;5474612;26;20442;-61
2024/04/12 05:08:53;;;;;;;16.40;12.47;;;14.30;99.90;;;;;;5474891;26;20561;-61
2024/04/12 05:11:19;;;;;;;20.00;12.77;;;14.30;99.90;;;;;;5473529;26;20537;-62
2024/04/12 05:13:49;;;;;;;20.13;12.53;;;14.30;99.90;;;;;;5473611;26;20471;-62
2024/04/12 05:16:18;;;;;;;18.20;12.70;;;14.30;99.90;;;;;;5474134;26;20248;-62
2024/04/12 05:18:53;;;;;;;15.43;12.60;;;14.30;99.90;;;;;;5474102;26;20463;-63
2024/04/12 05:21:20;;;;;;;16.87;12.40;;;14.40;99.90;;;;;;5474160;26;20569;-62
2024/04/12 05:23:51;;;;;;;21.10;12.70;;;14.40;99.90;;;;;;5465518;26;20463;-62
2024/04/12 05:26:17;;;;;;;18.37;14.07;;;14.40;99.90;;;;;;5458396;26;20451;-62
2024/04/12 05:28:47;;;;;;;18.53;11.80;;;14.40;99.90;;;;;;5456125;26;20443;-61
2024/04/12 05:31:13;;;;;;;18.60;12.60;;;14.40;99.90;;;;;;5456109;26;20443;-61
2024/04/12 05:33:43;;;;;;;19.47;13.53;;;14.50;99.90;;;;;;5455960;26;20459;-62
2024/04/12 05:36:11;;;;;;;17.63;13.40;;;14.50;99.90;;;;;;5456325;26;20595;-63
2024/04/12 05:38:40;;;;;;;17.30;13.23;;;14.50;99.90;;;;;;5456423;26;20536;-62
2024/04/12 05:41:09;;;;;;;19.27;13.53;;;14.50;99.90;;;;;;5455997;26;20447;-61
2024/04/12 05:43:38;;;;;;;18.30;14.03;;;14.50;99.90;;;;;;5455585;26;20519;-61
2024/04/12 05:46:05;;;;;;;16.47;13.07;;;14.50;99.90;;;;;;5456109;26;20854;-60
2024/04/12 05:48:36;;;;;;;19.77;14.17;;;14.60;99.90;;;;;;5455679;26;20989;-61
2024/04/12 05:51:02;;;;;;;17.57;14.40;;;14.60;99.90;;;;;;5456141;26;20482;-61
2024/04/12 05:53:33;;;;;;;18.77;13.17;;;14.60;99.90;;;;;;5455749;26;20599;-62
2024/04/12 05:58:46;;;;;;;26.57;15.50;;;14.70;99.90;;;;;;5459512;26;20614;-61
2024/04/12 06:01:12;;;;;;;18.57;14.57;;;14.70;99.90;;;;;;5455818;26;20583;-62
2024/04/12 06:03:48;;;;;;;20.97;14.80;;;14.80;99.90;;;;;;5456570;26;20895;-61
2024/04/12 06:06:15;;;;;;;18.70;12.90;;;14.80;99.90;;;;;;5456667;26;20506;-61
2024/04/12 06:08:46;;;;;;;18.03;13.77;;;14.80;99.90;;;;;;5455994;26;20459;-62
2024/04/12 06:11:13;;;;;;;18.90;14.67;;;14.90;99.90;;;;;;5455787;26;21004;-62
2024/04/12 06:13:43;;;;;;;19.03;13.83;;;15.00;99.90;;;;;;5455518;26;20573;-62
2024/04/12 06:16:09;;;;;;;17.93;13.57;;;15.00;99.90;;;;;;5457385;26;20519;-62
2024/04/12 06:18:37;;;;;;;14.93;11.73;;;15.10;99.90;;;;;;5458990;26;20557;-62
2024/04/12 06:21:04;;;;;;;15.37;12.53;;;15.20;99.90;;;;;;5461089;26;20304;-62
2024/04/12 06:23:33;;;;;;;15.67;11.50;;;15.20;99.90;;;;;;5460099;26;20864;-63
2024/04/12 06:26:01;;;;;;;15.80;11.13;;;15.40;99.90;;;;;;5459170;26;20451;-62
2024/04/12 06:28:30;;;;;;;18.37;12.10;;;15.50;99.90;;;;;;5457040;26;20448;-62
2024/04/12 06:30:59;;;;;;;15.27;10.47;;;15.60;99.90;;;;;;5462638;26;20447;-62
2024/04/12 06:33:28;;;;;;;13.00;10.37;;;15.70;99.90;;;;;;5465599;26;20518;-62
2024/04/12 06:36:04;;;;;;;14.10;10.40;;;15.80;99.90;;;;;;5462605;26;20448;-62
2024/04/12 06:38:33;;;;;;;14.90;10.63;;;15.80;99.90;;;;;;5459154;26;20463;-61
2024/04/12 06:41:02;;;;;;;15.80;10.67;;;15.90;99.90;;;;;;5456613;26;20444;-61
2024/04/12 06:43:33;;;;;;;13.67;9.77;;;16.00;99.90;;;;;;5455979;26;20529;-61
2024/04/12 06:46:00;;;;;;;12.00;8.57;;;16.10;99.90;;;;;;5456107;26;20488;-62
2024/04/12 06:48:29;;;;;;;11.70;7.70;;;16.30;99.90;;;;;;5455988;26;20522;-61
2024/04/12 06:50:55;;;;;;;9.03;7.50;;;16.30;99.90;;;;;;5455599;26;20507;-62
2024/04/12 06:53:24;;;;;;;12.93;8.80;;;16.30;99.90;;;;;;5455441;26;20896;-62
2024/04/12 06:55:55;;;;;;;8.43;6.53;;;16.40;99.90;;;;;;5455675;26;20587;-62
2024/04/12 06:58:27;;;;;;;9.87;6.40;;;16.50;99.90;;;;;;5455414;26;20855;-62
2024/04/12 07:00:56;;;;;;;7.40;5.83;;;16.60;99.90;;;;;;5455532;26;20455;-62
2024/04/12 07:03:27;;;;;;;7.60;6.00;;;16.70;99.90;;;;;;5455794;26;20555;-62
2024/04/12 07:05:54;;;;;;;6.90;5.73;;;16.80;99.90;;;;;;5455357;26;20757;-62
2024/04/12 07:08:26;;;;;;;7.53;5.67;;;17.10;99.90;;;;;;5456234;26;20440;-61
2024/04/12 07:10:52;;;;;;;8.07;5.57;;;17.10;99.90;;;;;;5455639;26;20447;-63
2024/04/12 07:13:27;;;;;;;10.23;6.03;;;17.30;99.90;;;;;;5454506;26;20524;-62
2024/04/12 07:15:55;;;;;;;9.30;5.43;;;17.20;99.90;;;;;;5455094;26;20451;-62
2024/04/12 07:18:26;;;;;;;8.93;5.57;;;17.20;99.90;;;;;;5455198;26;20810;-62
2024/04/12 07:20:58;;;;;;;9.60;5.20;;;17.30;99.90;;;;;;5455165;26;20515;-63
2024/04/12 07:23:31;;;;;;;6.80;4.67;;;17.40;99.90;;;;;;5455647;26;20459;-62
2024/04/12 07:25:57;;;;;;;5.67;4.90;;;17.30;99.90;;;;;;5455206;26;20459;-60
2024/04/12 07:28:27;;;;;;;7.60;4.73;;;17.40;99.90;;;;;;5455525;26;20444;-62
2024/04/12 07:30:57;;;;;;;4.87;3.97;;;17.40;99.90;;;;;;5455036;26;20226;-62
2024/04/12 07:33:25;;;;;;;6.00;4.30;;;17.50;99.90;;;;;;5455304;26;20496;-61
2024/04/12 07:35:51;;;;;;;9.40;4.27;;;17.50;99.90;;;;;;5455519;26;20494;-61
2024/04/12 07:38:22;;;;;;;4.60;4.20;;;17.50;99.90;;;;;;5455996;26;20448;-63
2024/04/12 07:40:52;;;;;;;5.60;4.50;;;17.40;99.90;;;;;;5457366;26;20202;-61
2024/04/12 07:43:23;;;;;;;5.13;4.20;;;17.30;99.90;;;;;;5456995;26;20581;-61
2024/04/12 07:45:50;;;;;;;4.50;4.10;;;17.20;99.90;;;;;;5456998;26;20503;-61
2024/04/12 07:48:28;;;;;;;7.67;4.20;;;17.10;99.90;;;;;;5456526;26;20456;-63
2024/04/12 07:50:54;;;;;;;4.77;3.60;;;17.10;99.90;;;;;;5456465;26;20562;-61
2024/04/12 07:53:24;;;;;;;4.23;3.57;;;17.20;99.90;;;;;;5456484;26;20523;-63
2024/04/12 07:55:58;;;;;;;5.07;3.50;;;17.30;99.60;;;;;;5456848;26;20507;-61
2024/04/12 07:58:27;;;;;;;4.30;3.57;;;17.30;99.30;;;;;;5456448;26;20500;-61
2024/04/12 08:01:09;;;;;;;7.00;3.80;;;17.30;99.10;;;;;;5456848;26;20495;-61
2024/04/12 08:03:40;;;;;;;4.10;3.43;;;17.40;99.00;;;;;;5455988;26;20569;-62
2024/04/12 08:06:18;;;;;;;4.83;3.33;;;17.50;98.80;;;;;;5455612;26;20887;-61
2024/04/12 08:08:45;;;;;;;5.13;3.23;;;17.60;98.50;;;;;;5456381;26;20915;-62
2024/04/12 08:11:31;;;;;;;4.10;3.20;;;17.60;98.10;;;;;;5454852;26;20508;-62
2024/04/12 08:14:05;;;;;;;4.67;3.20;;;17.70;97.90;;;;;;5454389;26;20459;-62
2024/04/12 08:16:35;;;;;;;5.23;3.50;;;17.70;97.50;;;;;;5455436;26;20448;-61
2024/04/12 08:19:03;;;;;;;5.20;3.43;;;17.70;97.40;;;;;;5454736;26;21036;-62
2024/04/12 08:21:37;;;;;;;6.20;3.50;;;17.70;97.10;;;;;;5454554;26;20448;-62
2024/04/12 08:24:09;;;;;;;4.43;3.53;;;17.70;97.00;;;;;;5456406;26;20551;-62
2024/04/12 08:26:38;;;;;;;3.67;3.20;;;17.70;96.80;;;;;;5454410;26;20447;-61
2024/04/12 08:29:06;;;;;;;8.13;7.00;;;17.60;96.70;;;;;;5455660;26;20588;-60
2024/04/12 08:31:35;;;;;;;3.57;3.27;;;17.60;96.80;;;;;;5454751;26;20451;-62
2024/04/12 08:34:04;;;;;;;3.50;2.87;;;17.70;96.80;;;;;;5455243;26;20513;-60
2024/04/12 08:36:33;;;;;;;4.03;3.43;;;17.70;96.60;;;;;;5455297;26;20500;-62
2024/04/12 08:39:12;;;;;;;4.83;3.33;;;17.70;96.30;;;;;;5453647;26;20503;-61
2024/04/12 08:41:41;;;;;;;3.83;3.43;;;17.70;96.50;;;;;;5454987;26;20992;-61
2024/04/12 08:44:09;;;;;;;5.83;4.67;;;17.70;95.80;;;;;;5455894;26;20575;-62
2024/04/12 08:46:43;;;;;;;5.10;4.23;;;17.70;95.80;;;;;;5456585;26;20456;-61
2024/04/12 08:49:14;;;;;;;6.63;4.67;;;17.70;95.70;;;;;;5458185;26;20447;-62
2024/04/12 08:51:46;;;;;;;5.30;4.80;;;17.70;95.40;;;;;;5456878;26;20439;-61
2024/04/12 08:54:15;;;;;;;5.60;5.03;;;17.70;95.20;;;;;;5456270;26;20463;-62
2024/04/12 08:56:46;;;;;;;6.43;5.07;;;17.70;94.90;;;;;;5461272;26;20493;-61
2024/04/12 08:59:17;;;;;;;7.63;5.20;;;17.70;95.20;;;;;;5465776;26;20451;-64
2024/04/12 09:01:47;;;;;;;9.90;4.50;;;17.80;95.00;;;;;;5462124;26;20535;-60
2024/04/12 09:04:20;;;;;;;5.30;4.60;;;17.90;94.70;;;;;;5469160;26;20511;-61
2024/04/12 09:06:49;;;;;;;8.87;5.60;;;18.10;93.90;;;;;;5469431;26;20530;-62
2024/04/12 09:09:17;;;;;;;5.77;4.63;;;18.30;93.00;;;;;;5468826;26;20443;-62
2024/04/12 09:11:45;;;;;;;7.00;5.17;;;18.30;92.60;;;;;;5468013;26;20523;-63
2024/04/12 09:14:19;;;;;;;7.07;5.60;;;18.40;92.20;;;;;;5465938;26;20523;-62
2024/04/12 09:16:48;;;;;;;6.90;5.17;;;18.50;91.80;;;;;;5464320;26;20543;-61
2024/04/12 09:19:18;;;;;;;5.07;3.93;;;18.60;91.10;;;;;;5463120;26;20504;-62
2024/04/12 09:21:58;;;;;;;6.90;5.63;;;18.60;90.50;;;;;;5461680;26;20976;-62
2024/04/12 09:24:31;;;;;;;6.57;5.40;;;18.60;90.40;;;;;;5459752;26;20510;-62
2024/04/12 09:27:09;;;;;;;7.20;4.97;;;18.60;90.30;;;;;;5459030;26;20456;-61
2024/04/12 09:29:43;;;;;;;7.17;5.70;;;18.70;90.50;;;;;;5460190;26;20499;-62
2024/04/12 09:35:02;;;;;;;7.13;5.20;;;18.80;89.70;;;;;;5462210;26;20494;-61
2024/04/12 09:37:30;;;;;;;6.87;5.17;;;18.80;88.50;;;;;;5459703;26;20590;-61
2024/04/12 09:40:16;;;;;;;5.10;4.57;;;18.90;88.10;;;;;;5459591;26;20495;-60
2024/04/12 09:43:25;;;;;;;7.17;5.27;;;18.90;88.10;;;;;;5458977;26;20483;-62
2024/04/12 09:45:57;;;;;;;6.00;5.37;;;19.00;86.30;;;;;;5456589;26;20463;-62
2024/04/12 10:38:44;;;;;;;5.10;4.60;;;20.10;80.10;;;;;;5459694;26;20424;-61
2024/04/12 10:41:15;;;;;;;3.83;3.53;;;20.10;80.00;;;;;;5456738;26;20979;-62
2024/04/12 10:43:45;;;;;;;6.07;5.47;;;20.00;79.90;;;;;;5457362;26;20595;-62
2024/04/12 10:46:14;;;;;;;5.10;4.60;;;19.90;81.00;;;;;;5456844;26;20549;-62
2024/04/12 10:48:44;;;;;;;5.50;4.90;;;19.80;81.90;;;;;;5457279;26;20564;-62
2024/04/12 10:51:14;;;;;;;5.47;4.97;;;19.70;82.60;;;;;;5457336;26;20452;-63
2024/04/12 10:53:46;;;;;;;5.17;4.50;;;19.50;83.60;;;;;;5455985;26;20459;-61
2024/04/12 10:56:18;;;;;;;4.33;3.90;;;19.40;85.10;;;;;;5457054;26;20455;-64
2024/04/12 10:58:51;;;;;;;6.70;4.30;;;19.20;86.70;;;;;;5456422;26;20487;-62
2024/04/12 11:01:18;;;;;;;5.47;4.97;;;19.10;88.10;;;;;;5456336;26;20455;-63
2024/04/12 11:03:56;;;;;;;5.37;4.53;;;19.10;89.90;;;;;;5457170;26;20463;-61
2024/04/12 11:06:30;;;;;;;4.97;4.53;;;19.20;90.20;;;;;;5456183;26;20651;-60
2024/04/12 11:08:59;;;;;;;6.90;4.33;;;19.30;90.20;;;;;;5456098;26;20462;-62
2024/04/12 11:11:31;;;;;;;4.43;3.70;;;19.30;90.40;;;;;;5455775;26;20467;-62
2024/04/12 11:14:03;;;;;;;4.93;3.97;;;19.30;90.50;;;;;;5456136;26;20472;-62
2024/04/12 11:33:05;;;;;;;5.17;4.27;;;20.10;85.10;;;;;;5462426;26;20561;-61
2024/04/12 11:35:34;;;;;;;8.70;5.00;;;20.20;85.00;;;;;;5457486;26;20523;-62
2024/04/12 11:38:04;;;;;;;6.97;4.73;;;20.40;84.50;;;;;;5456893;26;20452;-61
2024/04/12 11:40:37;;;;;;;4.53;4.03;;;20.60;83.50;;;;;;5456374;26;20451;-62
2024/04/12 11:43:09;;;;;;;5.10;4.00;;;20.70;82.20;;;;;;5456180;26;20925;-61
2024/04/12 11:45:41;;;;;;;4.20;3.67;;;20.80;80.40;;;;;;5457627;26;20990;-61
2024/04/12 11:48:14;;;;;;;4.97;3.90;;;20.80;79.50;;;;;;5456901;26;20525;-61
2024/04/12 11:50:41;;;;;;;4.70;3.83;;;20.80;78.70;;;;;;5455382;26;20557;-62
2024/04/12 11:53:10;;;;;;;5.97;4.20;;;20.80;77.50;;;;;;5455764;26;20519;-62
2024/04/12 11:55:37;;;;;;;5.87;3.90;;;20.60;76.70;;;;;;5455175;26;20953;-62
2024/04/12 11:58:08;;;;;;;5.80;3.80;;;20.50;76.70;;;;;;5454902;26;20538;-62
2024/04/12 12:00:37;;;;;;;5.73;3.77;;;20.40;76.90;;;;;;5456075;26;20451;-62
2024/04/12 12:03:06;;;;;;;9.07;4.37;;;20.40;77.10;;;;;;5456067;26;20534;-62
2024/04/12 12:05:37;;;;;;;4.77;3.80;;;20.40;77.30;;;;;;5459519;26;20507;-61
2024/04/12 12:08:08;;;;;;;5.00;3.97;;;20.50;77.50;;;;;;5461576;26;20452;-62
2024/04/12 12:10:34;;;;;;;3.90;3.50;;;20.60;77.10;;;;;;5458551;26;20656;-62
2024/04/12 12:13:03;;;;;;;4.40;3.70;;;20.70;77.00;;;;;;5457133;26;20527;-62
2024/04/12 12:15:31;;;;;;;7.03;4.73;;;20.70;76.70;;;;;;5457648;26;20492;-61
2024/04/12 12:18:00;;;;;;;5.27;3.87;;;20.70;76.70;;;;;;5456819;26;20456;-62
2024/04/12 12:20:30;;;;;;;4.80;4.03;;;20.70;76.30;;;;;;5456587;26;20440;-61
2024/04/12 12:22:59;;;;;;;6.67;4.73;;;20.70;76.20;;;;;;5455608;26;20553;-63
2024/04/12 12:25:26;;;;;;;4.60;4.20;;;20.60;76.70;;;;;;5456524;26;20455;-63
2024/04/12 12:27:56;;;;;;;5.67;4.30;;;20.60;77.00;;;;;;5455276;26;20526;-61
2024/04/12 12:30:23;;;;;;;5.03;4.40;;;20.60;77.10;;;;;;5455288;26;20452;-61
2024/04/12 12:32:54;;;;;;;6.20;4.80;;;20.60;77.00;;;;;;5455115;26;20471;-63
2024/04/12 12:35:21;;;;;;;8.80;4.53;;;20.60;76.70;;;;;;5459944;26;20459;-62
2024/04/12 12:37:50;;;;;;;5.83;5.23;;;20.60;77.00;;;;;;5459290;26;20544;-62
2024/04/12 12:40:18;;;;;;;6.60;4.70;;;20.60;77.20;;;;;;5458812;26;20492;-61
2024/04/12 12:42:48;;;;;;;5.40;4.00;;;20.60;77.10;;;;;;5462474;26;20471;-62
2024/04/12 12:45:15;;;;;;;5.60;4.90;;;20.60;77.20;;;;;;5469893;26;20496;-61
2024/04/12 12:47:45;;;;;;;6.20;4.97;;;20.60;77.40;;;;;;5468489;26;20459;-63
2024/04/12 12:50:19;;;;;;;6.93;4.60;;;20.70;78.00;;;;;;5469267;26;20447;-62
2024/04/12 12:52:50;;;;;;;5.00;4.23;;;20.80;77.90;;;;;;5463928;26;20455;-62
2024/04/12 12:55:19;;;;;;;7.37;4.40;;;20.80;77.90;;;;;;5466808;26;20463;-63
2024/04/12 12:57:48;;;;;;;8.17;4.87;;;20.80;77.90;;;;;;5459618;26;20459;-62
2024/04/12 13:00:19;;;;;;;7.53;6.20;;;20.80;78.10;;;;;;5459028;26;20822;-61
2024/04/12 13:02:50;;;;;;;6.17;4.93;;;20.80;78.20;;;;;;5458817;26;20475;-62
2024/04/12 13:05:19;;;;;;;6.57;4.57;;;20.90;78.40;;;;;;5459117;26;20455;-62
2024/04/12 13:07:51;;;;;;;5.50;4.83;;;20.80;78.40;;;;;;5459865;26;20503;-61
2024/04/12 13:10:19;;;;;;;6.00;5.40;;;20.80;78.70;;;;;;5461099;26;20451;-62
2024/04/12 13:12:51;;;;;;;5.50;4.50;;;20.60;79.10;;;;;;5459300;26;20475;-62
2024/04/12 13:15:19;;;;;;;7.57;4.80;;;20.60;79.80;;;;;;5458829;26;20455;-61
2024/04/12 13:17:49;;;;;;;6.47;5.47;;;20.60;80.30;;;;;;5458441;26;20463;-62
2024/04/12 13:20:19;;;;;;;8.90;5.67;;;20.60;80.20;;;;;;5458132;26;20542;-62
2024/04/12 13:22:51;;;;;;;7.10;5.33;;;20.60;80.20;;;;;;5457563;26;20506;-63
2024/04/12 13:25:17;;;;;;;6.40;4.50;;;20.60;80.70;;;;;;5458053;26;20459;-61
2024/04/12 13:27:47;;;;;;;7.20;4.53;;;20.60;79.80;;;;;;5457141;26;21090;-62
2024/04/12 13:30:14;;;;;;;6.20;4.63;;;20.60;79.70;;;;;;5458373;26;20486;-62
2024/04/12 13:32:43;;;;;;;6.20;4.77;;;20.80;79.50;;;;;;5457659;26;20527;-61
2024/04/12 13:35:09;;;;;;;6.60;4.73;;;20.90;78.90;;;;;;5457865;26;20542;-62
2024/04/12 13:37:38;;;;;;;5.50;4.80;;;20.90;78.10;;;;;;5457325;26;20499;-62
2024/04/12 13:40:09;;;;;;;7.07;4.97;;;20.80;78.30;;;;;;5457748;26;20514;-62
2024/04/12 13:42:39;;;;;;;6.93;5.00;;;20.90;78.40;;;;;;5462401;26;20459;-61
2024/04/12 13:53:32;;;;;;;6.53;5.20;;;21.10;77.20;;;;;;5461116;26;21044;-62
2024/04/12 13:56:19;;;;;;;7.83;5.57;;;21.20;76.80;;;;;;5457853;26;20447;-62
2024/04/12 13:58:48;;;;;;;6.50;5.47;;;21.20;76.90;;;;;;5462366;26;20447;-62
2024/04/12 14:01:17;;;;;;;14.20;8.37;;;21.20;76.70;;;;;;5465968;26;20507;-63
2024/04/12 14:03:43;;;;;;;7.40;6.70;;;21.10;77.00;;;;;;5460085;26;21081;-61
2024/04/12 14:06:12;;;;;;;7.83;6.30;;;21.10;77.20;;;;;;5459317;26;20443;-62
2024/04/12 14:08:38;;;;;;;6.57;5.70;;;21.00;77.30;;;;;;5458678;26;20218;-62
2024/04/12 14:11:10;;;;;;;7.07;6.27;;;20.90;77.90;;;;;;5458040;26;20853;-61
2024/04/12 14:13:36;;;;;;;7.07;6.40;;;21.00;78.50;;;;;;5457667;26;20523;-62